createdAt,value
2022-08-04T00:01:12.958Z,96385.13
2022-08-04T00:04:02.987Z,96380.97
2022-08-04T00:06:35.990Z,96378.50
2022-08-04T00:09:10.877Z,96384.53
2022-08-04T00:11:40.618Z,96379.38
2022-08-04T00:14:15.055Z,96378.53
2022-08-04T00:16:43.498Z,96376.66
2022-08-04T00:19:24.687Z,96376.47
2022-08-04T00:22:02.944Z,96379.59
2022-08-04T00:24:34.143Z,96375.44
2022-08-04T00:27:01.316Z,96377.28
2022-08-04T00:29:28.724Z,96377.72
2022-08-04T00:32:01.958Z,96380.00
2022-08-04T00:34:29.995Z,96380.44
2022-08-04T00:36:58.754Z,96381.69
2022-08-04T00:39:26.756Z,96380.03
2022-08-04T00:42:15.292Z,96390.38
2022-08-04T00:45:00.600Z,96382.53
2022-08-04T00:48:02.128Z,96381.88
2022-08-04T00:50:39.344Z,96384.16
2022-08-04T00:53:19.427Z,96384.38
2022-08-04T00:55:54.819Z,96379.63
2022-08-04T00:58:36.139Z,96382.53
2022-08-04T01:01:11.499Z,96384.19
2022-08-04T01:04:03.716Z,96385.44
2022-08-04T01:07:01.653Z,96378.19
2022-08-04T01:09:52.783Z,96372.19
2022-08-04T01:12:19.406Z,96370.72
2022-08-04T01:15:04.139Z,96380.91
2022-08-04T01:17:44.052Z,96373.84
2022-08-04T01:20:15.508Z,96371.38
2022-08-04T01:23:19.120Z,96364.31
2022-08-04T01:25:48.462Z,96363.09
2022-08-04T01:28:50.353Z,96371.38
2022-08-04T01:31:28.865Z,96366.00
2022-08-04T01:34:04.370Z,96373.03
2022-08-04T01:36:35.426Z,96364.75
2022-08-04T01:39:24.956Z,96364.13
2022-08-04T01:41:58.033Z,96360.19
2022-08-04T01:44:28.854Z,96359.78
2022-08-04T01:46:55.851Z,96365.19
2022-08-04T01:49:28.162Z,96358.94
2022-08-04T01:51:56.717Z,96361.03
2022-08-04T01:54:24.292Z,96360.63
2022-08-04T01:56:51.910Z,96358.97
2022-08-04T01:59:20.804Z,96364.56
2022-08-04T02:01:48.422Z,96357.72
2022-08-04T02:04:23.430Z,96363.94
2022-08-04T02:06:56.122Z,96356.09
2022-08-04T02:09:30.009Z,96357.94
2022-08-04T02:12:05.996Z,96361.88
2022-08-04T02:15:03.273Z,96363.94
2022-08-04T02:17:40.554Z,96363.09
2022-08-04T02:20:23.146Z,96352.75
2022-08-04T02:23:20.236Z,96352.97
2022-08-04T02:25:49.203Z,96346.78
2022-08-04T02:28:23.560Z,96342.84
2022-08-04T02:31:22.203Z,96342.84
2022-08-04T02:34:20.820Z,96342.19
2022-08-04T02:36:51.757Z,96339.09
2022-08-04T02:39:22.830Z,96341.38
2022-08-04T02:41:53.068Z,96334.13
2022-08-04T02:44:23.755Z,96337.03
2022-08-04T02:46:52.849Z,96343.22
2022-08-04T02:49:24.226Z,96331.22
2022-08-04T02:51:57.299Z,96332.88
2022-08-04T02:54:32.782Z,96332.06
2022-08-04T02:57:02.217Z,96327.72
2022-08-04T02:59:57.605Z,96327.09
2022-08-04T03:02:35.146Z,96330.81
2022-08-04T03:05:13.602Z,96325.78
2022-08-04T03:07:55.106Z,96327.06
2022-08-04T03:10:38.579Z,96311.75
2022-08-04T03:13:36.889Z,96320.63
2022-08-04T03:16:51.225Z,96319.00
2022-08-04T03:19:26.763Z,96316.31
2022-08-04T03:22:23.220Z,96319.19
2022-08-04T03:25:13.784Z,96312.16
2022-08-04T03:28:21.642Z,96311.72
2022-08-04T03:31:06.820Z,96311.94
2022-08-04T03:33:33.350Z,96310.28
2022-08-04T03:36:37.507Z,96315.66
2022-08-04T03:39:18.500Z,96318.78
2022-08-04T03:42:04.896Z,96317.31
2022-08-04T03:44:38.216Z,96322.69
2022-08-04T03:47:20.196Z,96316.69
2022-08-04T03:50:28.229Z,96322.25
2022-08-04T03:53:16.537Z,96320.41
2022-08-04T03:55:48.856Z,96321.00
2022-08-04T03:58:47.214Z,96320.41
2022-08-04T04:02:01.221Z,96321.00
2022-08-04T04:04:40.521Z,96318.09
2022-08-04T04:07:24.381Z,96317.72
2022-08-04T04:10:28.713Z,96318.97
2022-08-04T04:13:18.629Z,96318.75
2022-08-04T04:15:50.090Z,96318.09
2022-08-04T04:18:29.366Z,96322.88
2022-08-04T04:21:19.402Z,96322.22
2022-08-04T04:23:48.784Z,96320.38
2022-08-04T04:27:09.417Z,96320.38
2022-08-04T04:29:54.268Z,96321.00
2022-08-04T04:32:46.998Z,96324.53
2022-08-04T04:35:23.218Z,96325.34
2022-08-04T04:38:28.716Z,96325.97
2022-08-04T04:41:11.559Z,96327.03
2022-08-04T04:43:51.561Z,96324.13
2022-08-04T04:46:37.340Z,96327.41
2022-08-04T04:49:37.918Z,96336.94
2022-08-04T04:52:24.387Z,96336.94
2022-08-04T04:55:14.586Z,96336.53
2022-08-04T04:57:54.694Z,96336.94
2022-08-04T05:00:26.445Z,96337.78
2022-08-04T05:03:09.002Z,96335.91
2022-08-04T05:05:51.230Z,96330.28
2022-08-04T05:08:45.573Z,96331.13
2022-08-04T05:11:13.707Z,96335.28
2022-08-04T05:14:35.372Z,96327.84
2022-08-04T05:16:51.310Z,96328.50
2022-08-04T05:19:39.792Z,96331.19
2022-08-04T05:22:14.789Z,96328.31
2022-08-04T05:24:44.974Z,96324.81
2022-08-04T05:27:25.865Z,96333.63
2022-08-04T05:29:59.767Z,96327.03
2022-08-04T05:32:37.552Z,96331.16
2022-08-04T05:35:09.456Z,96330.69
2022-08-04T05:37:40.418Z,96329.25
2022-08-04T05:40:09.453Z,96332.28
2022-08-04T05:42:39.698Z,96331.03
2022-08-04T05:45:08.670Z,96325.06
2022-08-04T05:47:36.875Z,96325.47
2022-08-04T05:50:05.859Z,96321.25
2022-08-04T05:52:34.690Z,96329.88
2022-08-04T05:55:02.901Z,96322.66
2022-08-04T05:57:30.903Z,96327.44
2022-08-04T06:00:00.559Z,96326.44
2022-08-04T06:02:28.549Z,96317.00
2022-08-04T06:04:57.902Z,96305.91
2022-08-04T06:07:26.707Z,96308.59
2022-08-04T06:09:54.356Z,96305.97
2022-08-04T06:12:31.156Z,96315.19
2022-08-04T06:15:00.202Z,96318.50
2022-08-04T06:19:56.250Z,96318.84
2022-08-04T06:20:23.378Z,96308.53
2022-08-04T06:22:55.660Z,96312.84
2022-08-04T06:25:29.867Z,96311.84
2022-08-04T06:27:58.173Z,96309.38
2022-08-04T06:30:27.419Z,96307.28
2022-08-04T06:33:03.685Z,96306.06
2022-08-04T06:35:32.758Z,96307.81
2022-08-04T06:38:01.661Z,96302.94
2022-08-04T06:40:32.179Z,96301.22
2022-08-04T06:43:06.474Z,96304.63
2022-08-04T06:45:40.090Z,96303.94
2022-08-04T06:48:08.597Z,96309.25
2022-08-04T06:51:27.654Z,96304.00
2022-08-04T06:53:24.501Z,96308.75
2022-08-04T06:55:52.587Z,96301.25
2022-08-04T06:58:21.103Z,96292.81
2022-08-04T07:00:48.650Z,96296.97
2022-08-04T07:03:18.198Z,96304.25
2022-08-04T07:05:48.206Z,96301.69
2022-08-04T07:08:15.532Z,96305.78
2022-08-04T07:10:42.646Z,96298.69
2022-08-04T07:13:10.633Z,96297.31
2022-08-04T07:15:41.475Z,96297.81
2022-08-04T07:18:08.264Z,96295.63
2022-08-04T07:20:36.780Z,96288.97
2022-08-04T07:23:05.664Z,96297.09
2022-08-04T07:26:11.147Z,96292.81
2022-08-04T07:28:22.723Z,96290.06
2022-08-04T07:30:50.654Z,96291.50
2022-08-04T07:33:18.381Z,96285.03
2022-08-04T07:36:05.958Z,96293.28
2022-08-04T07:38:37.873Z,96292.41
2022-08-04T07:41:38.279Z,96290.81
2022-08-04T07:44:05.844Z,96287.91
2022-08-04T07:46:32.692Z,96282.50
2022-08-04T07:49:02.532Z,96283.34
2022-08-04T07:51:30.810Z,96285.00
2022-08-04T07:53:58.678Z,96280.03
2022-08-04T07:56:27.206Z,96283.03
2022-08-04T07:58:54.738Z,96281.59
2022-08-04T08:01:22.282Z,96280.59
2022-08-04T08:03:50.831Z,96280.03
2022-08-04T08:06:32.956Z,96287.13
2022-08-04T08:09:12.195Z,96285.19
2022-08-04T08:12:35.298Z,96277.44
2022-08-04T08:14:27.554Z,96285.88
2022-08-04T08:16:54.478Z,96282.28
2022-08-04T08:19:21.211Z,96282.00
2022-08-04T08:21:58.968Z,96274.66
2022-08-04T08:24:30.883Z,96277.88
2022-08-04T08:26:58.759Z,96282.03
2022-08-04T08:29:26.678Z,96280.69
2022-08-04T08:31:56.682Z,96275.38
2022-08-04T08:34:28.951Z,96277.00
2022-08-04T08:37:41.866Z,96278.06
2022-08-04T08:40:11.989Z,96288.16
2022-08-04T08:42:48.009Z,96276.44
2022-08-04T08:45:38.837Z,96275.09
2022-08-04T08:48:29.529Z,96277.84
2022-08-04T08:50:58.887Z,96277.47
2022-08-04T08:53:28.278Z,96283.25
2022-08-04T08:56:34.261Z,96279.91
2022-08-04T08:59:33.725Z,96282.81
2022-08-04T09:02:18.874Z,96283.81
2022-08-04T09:04:54.481Z,96290.72
2022-08-04T09:07:58.701Z,96288.44
2022-08-04T09:10:33.610Z,96287.13
2022-08-04T09:13:17.781Z,96293.94
2022-08-04T09:16:10.926Z,96291.81
2022-08-04T09:18:53.111Z,96294.34
2022-08-04T09:21:34.014Z,96294.09
2022-08-04T09:24:36.744Z,96290.84
2022-08-04T09:27:25.131Z,96285.63
2022-08-04T09:30:08.468Z,96285.19
2022-08-04T09:32:47.256Z,96273.25
2022-08-04T09:35:19.143Z,96278.25
2022-08-04T09:38:05.858Z,96269.38
2022-08-04T09:40:55.431Z,96276.22
2022-08-04T09:44:41.775Z,96263.88
2022-08-04T09:46:27.960Z,96265.31
2022-08-04T09:49:07.637Z,96264.41
2022-08-04T09:51:57.801Z,96265.78
2022-08-04T09:54:44.010Z,96262.72
2022-08-04T09:57:41.794Z,96255.91
2022-08-04T10:00:10.880Z,96255.06
2022-08-04T10:03:01.173Z,96256.19
2022-08-04T10:06:06.105Z,96259.78
2022-08-04T10:09:09.159Z,96251.72
2022-08-04T10:12:01.813Z,96251.00
2022-08-04T10:14:44.171Z,96244.44
2022-08-04T10:17:31.799Z,96246.06
2022-08-04T10:20:11.621Z,96246.28
2022-08-04T10:23:09.552Z,96247.25
2022-08-04T10:26:08.718Z,96241.44
2022-08-04T10:28:44.948Z,96239.19
2022-08-04T10:31:19.520Z,96237.47
2022-08-04T10:33:58.765Z,96237.13
2022-08-04T10:36:30.406Z,96233.25
2022-08-04T10:39:06.162Z,96225.50
2022-08-04T10:42:13.032Z,96217.13
2022-08-04T10:45:19.312Z,96223.28
2022-08-04T10:47:57.803Z,96225.09
2022-08-04T10:50:26.658Z,96221.75
2022-08-04T10:53:23.058Z,96213.28
2022-08-04T10:56:06.270Z,96222.78
2022-08-04T10:58:49.791Z,96212.66
2022-08-04T11:01:59.482Z,96208.63
2022-08-04T11:04:48.763Z,96214.34
2022-08-04T11:07:17.295Z,96216.88
2022-08-04T11:09:45.345Z,96206.00
2022-08-04T11:12:25.442Z,96219.88
2022-08-04T11:14:54.740Z,96211.88
2022-08-04T11:17:26.454Z,96218.41
2022-08-04T11:20:24.812Z,96212.97
2022-08-04T11:22:58.058Z,96214.13
2022-08-04T11:25:36.052Z,96203.47
2022-08-04T11:28:22.306Z,96203.72
2022-08-04T11:31:08.167Z,96199.22
2022-08-04T11:34:01.567Z,96201.03
2022-08-04T11:37:00.892Z,96195.56
2022-08-04T11:39:36.483Z,96194.69
2022-08-04T11:42:21.111Z,96199.31
2022-08-04T11:44:51.508Z,96194.22
2022-08-04T11:47:30.416Z,96190.97
2022-08-04T11:50:10.176Z,96184.78
2022-08-04T11:52:40.410Z,96182.25
2022-08-04T11:55:11.456Z,96180.59
2022-08-04T11:57:39.452Z,96177.16
2022-08-04T12:00:10.308Z,96189.25
2022-08-04T12:02:40.457Z,96184.75
2022-08-04T12:05:09.432Z,96174.47
2022-08-04T12:08:11.918Z,96176.50
2022-08-04T12:10:54.085Z,96165.09
2022-08-04T12:13:28.128Z,96165.34
2022-08-04T12:16:05.938Z,96170.16
2022-08-04T12:18:43.414Z,96176.59
2022-08-04T12:21:23.499Z,96176.03
2022-08-04T12:24:00.612Z,96173.91
2022-08-04T12:26:29.008Z,96177.75
2022-08-04T12:29:10.523Z,96170.41
2022-08-04T12:31:47.035Z,96174.22
2022-08-04T12:34:32.300Z,96169.38
2022-08-04T12:37:15.438Z,96168.59
2022-08-04T12:40:21.617Z,96170.31
2022-08-04T12:42:55.838Z,96169.09
2022-08-04T12:45:27.298Z,96167.13
2022-08-04T12:47:58.119Z,96166.66
2022-08-04T12:50:25.764Z,96163.91
2022-08-04T12:53:04.076Z,96156.09
2022-08-04T12:55:35.454Z,96153.97
2022-08-04T12:58:11.810Z,96159.38
2022-08-04T13:00:41.778Z,96157.31
2022-08-04T13:03:16.890Z,96156.69
2022-08-04T13:05:45.541Z,96159.25
2022-08-04T13:08:13.948Z,96148.97
2022-08-04T13:10:44.597Z,96143.34
2022-08-04T13:13:20.027Z,96137.13
2022-08-04T13:16:08.381Z,96138.88
2022-08-04T13:18:42.778Z,96135.84
2022-08-04T13:21:21.035Z,96126.78
2022-08-04T13:27:06.276Z,96119.63
2022-08-04T13:29:58.053Z,96119.88
2022-08-04T13:30:24.216Z,96130.56
2022-08-04T13:32:28.840Z,96121.97
2022-08-04T13:34:57.534Z,96110.06
2022-08-04T13:37:36.114Z,96106.59
2022-08-04T13:40:09.240Z,96116.03
2022-08-04T13:42:39.065Z,96113.16
2022-08-04T13:45:08.383Z,96107.91
2022-08-04T13:47:38.485Z,96099.28
2022-08-04T13:50:19.786Z,96105.66
2022-08-04T13:52:47.270Z,96098.53
2022-08-04T13:55:28.189Z,96100.38
2022-08-04T13:58:19.073Z,96093.63
2022-08-04T14:01:00.840Z,96100.44
2022-08-04T14:03:54.186Z,96095.84
2022-08-04T14:06:28.563Z,96094.31
2022-08-04T14:08:58.450Z,96096.75
2022-08-04T14:12:09.084Z,96094.81
2022-08-04T14:14:29.743Z,96086.06
2022-08-04T14:17:20.477Z,96090.19
2022-08-04T14:19:50.218Z,96088.75
2022-08-04T14:22:25.753Z,96092.25
2022-08-04T14:25:17.982Z,96096.31
2022-08-04T14:27:51.284Z,96084.22
2022-08-04T14:30:35.577Z,96078.97
2022-08-04T14:34:02.424Z,96089.78
2022-08-04T14:36:01.477Z,96093.13
2022-08-04T14:38:44.094Z,96084.53
2022-08-04T14:41:11.716Z,96077.41
2022-08-04T14:43:46.323Z,96076.28
2022-08-04T14:46:13.500Z,96082.03
2022-08-04T14:48:59.609Z,96069.84
2022-08-04T14:51:36.537Z,96071.91
2022-08-04T14:54:08.231Z,96071.38
2022-08-04T14:56:46.732Z,96069.72
2022-08-04T14:59:14.103Z,96065.94
2022-08-04T15:01:42.220Z,96072.66
2022-08-04T15:04:11.262Z,96067.09
2022-08-04T15:06:38.093Z,96069.09
2022-08-04T15:09:07.812Z,96072.78
2022-08-04T15:11:38.911Z,96063.69
2022-08-04T15:14:08.716Z,96066.34
2022-08-04T15:16:55.410Z,96072.91
2022-08-04T15:19:22.904Z,96068.84
2022-08-04T15:21:49.854Z,96063.19
2022-08-04T15:24:16.612Z,96062.66
2022-08-04T15:26:49.846Z,96067.69
2022-08-04T15:30:00.354Z,96066.94
2022-08-04T15:32:34.369Z,96065.44
2022-08-04T15:35:24.754Z,96066.34
2022-08-04T15:38:15.391Z,96059.59
2022-08-04T15:41:05.180Z,96061.78
2022-08-04T15:44:02.197Z,96057.06
2022-08-04T15:46:46.813Z,96064.94
2022-08-04T15:49:21.715Z,96055.78
2022-08-04T15:52:00.286Z,96050.09
2022-08-04T15:54:32.773Z,96059.81
2022-08-04T15:57:01.412Z,96063.16
2022-08-04T15:59:59.912Z,96049.50
2022-08-04T16:02:32.457Z,96050.97
2022-08-04T16:05:17.842Z,96046.94
2022-08-04T16:08:04.632Z,96042.84
2022-08-04T16:10:31.274Z,96049.75
2022-08-04T16:13:03.499Z,96044.53
2022-08-04T16:15:47.624Z,96042.38
2022-08-04T16:18:27.425Z,96039.06
2022-08-04T16:21:03.918Z,96033.91
2022-08-04T16:23:53.611Z,96037.84
2022-08-04T16:26:37.873Z,96042.00
2022-08-04T16:29:31.121Z,96051.59
2022-08-04T16:32:07.161Z,96038.97
2022-08-04T16:34:55.185Z,96043.97
2022-08-04T16:37:31.074Z,96044.00
2022-08-04T16:40:33.289Z,96048.97
2022-08-04T16:43:08.862Z,96044.59
2022-08-04T16:46:01.180Z,96044.41
2022-08-04T16:48:30.126Z,96043.03
2022-08-04T16:51:10.732Z,96053.69
2022-08-04T16:53:58.742Z,96047.78
2022-08-04T16:56:33.248Z,96053.06
2022-08-04T16:59:07.525Z,96052.28
2022-08-04T17:01:34.986Z,96051.72
2022-08-04T17:04:07.488Z,96049.59
2022-08-04T17:06:40.200Z,96045.50
2022-08-04T17:09:13.011Z,96051.25
2022-08-04T17:11:42.180Z,96052.09
2022-08-04T17:14:09.366Z,96048.84
2022-08-04T17:16:41.867Z,96050.25
2022-08-04T17:19:23.885Z,96060.91
2022-08-04T17:22:04.576Z,96055.50
2022-08-04T17:24:33.520Z,96050.00
2022-08-04T17:27:00.914Z,96056.84
2022-08-04T17:29:44.598Z,96059.28
2022-08-04T17:32:18.808Z,96062.56
2022-08-04T17:34:50.103Z,96068.03
2022-08-04T17:37:39.915Z,96063.38
2022-08-04T17:40:18.063Z,96072.66
2022-08-04T17:42:50.392Z,96075.38
2022-08-04T17:45:53.230Z,96070.19
2022-08-04T17:48:09.228Z,96076.44
2022-08-04T17:50:36.758Z,96072.09
2022-08-04T17:53:12.213Z,96079.16
2022-08-04T17:55:49.345Z,96071.25
2022-08-04T17:58:23.200Z,96078.31
2022-08-04T18:03:52.850Z,96088.59
2022-08-04T18:06:22.103Z,96088.59
2022-08-04T18:08:58.952Z,96086.91
2022-08-04T18:12:02.619Z,96090.44
2022-08-04T18:14:38.637Z,96083.56
2022-08-04T18:17:17.838Z,96097.16
2022-08-04T18:19:55.416Z,96093.31
2022-08-04T18:22:27.695Z,96097.63
2022-08-04T18:24:56.812Z,96100.84
2022-08-04T18:27:26.228Z,96108.16
2022-08-04T18:30:31.061Z,96108.38
2022-08-04T18:33:10.490Z,96114.59
2022-08-04T18:36:33.182Z,96116.44
2022-08-04T18:38:23.433Z,96116.94
2022-08-04T18:40:54.393Z,96120.72
2022-08-04T18:43:28.495Z,96123.94
2022-08-04T18:46:14.436Z,96116.19
2022-08-04T18:48:41.644Z,96130.28
2022-08-04T18:51:22.451Z,96127.53
2022-08-04T18:53:55.124Z,96131.56
2022-08-04T18:56:29.181Z,96134.47
2022-08-04T18:58:57.330Z,96132.22
2022-08-04T19:01:30.106Z,96140.34
2022-08-04T19:04:33.654Z,96138.06
2022-08-04T19:07:03.828Z,96146.69
2022-08-04T19:09:51.849Z,96143.91
2022-08-04T19:12:27.513Z,96148.22
2022-08-04T19:14:58.571Z,96146.25
2022-08-04T19:17:52.735Z,96149.75
2022-08-04T19:20:25.800Z,96157.81
2022-08-04T19:24:27.807Z,96156.69
2022-08-04T19:25:59.337Z,96164.53
2022-08-04T19:28:29.824Z,96161.19
2022-08-04T19:30:58.086Z,96157.53
2022-08-04T19:33:25.618Z,96159.38
2022-08-04T19:35:57.215Z,96162.03
2022-08-04T19:38:24.026Z,96167.13
2022-08-04T19:40:52.686Z,96178.75
2022-08-04T19:43:23.058Z,96174.56
2022-08-04T19:45:50.333Z,96172.63
2022-08-04T19:48:19.424Z,96173.94
2022-08-04T19:50:47.302Z,96176.56
2022-08-04T19:53:19.368Z,96177.53
2022-08-04T19:55:49.815Z,96177.00
2022-08-04T19:58:17.957Z,96179.88
2022-08-04T20:00:51.252Z,96181.19
2022-08-04T20:03:20.478Z,96187.94
2022-08-04T20:05:55.054Z,96189.25
2022-08-04T20:08:24.144Z,96194.59
2022-08-04T20:10:52.353Z,96190.72
2022-08-04T20:13:30.522Z,96183.66
2022-08-04T20:15:59.176Z,96186.59
2022-08-04T20:18:36.018Z,96192.53
2022-08-04T20:21:23.901Z,96193.81
2022-08-04T20:24:40.299Z,96190.19
2022-08-04T20:26:48.737Z,96200.97
2022-08-04T20:29:20.822Z,96198.16
2022-08-04T20:32:05.648Z,96191.31
2022-08-04T20:34:35.428Z,96199.97
2022-08-04T20:37:03.184Z,96196.09
2022-08-04T20:39:30.961Z,96200.13
2022-08-04T20:41:58.359Z,96192.72
2022-08-04T20:44:25.573Z,96199.69
2022-08-04T20:46:52.365Z,96195.22
2022-08-04T20:49:19.061Z,96201.16
2022-08-04T20:51:46.353Z,96200.00
2022-08-04T20:54:26.803Z,96193.75
2022-08-04T20:56:59.564Z,96193.66
2022-08-04T20:59:26.452Z,96198.97
2022-08-04T21:01:54.105Z,96209.47
2022-08-04T21:04:35.830Z,96201.81
2022-08-04T21:07:06.117Z,96205.59
2022-08-04T21:09:37.917Z,96208.31
2022-08-04T21:12:26.796Z,96207.63
2022-08-04T21:15:01.481Z,96203.75
2022-08-04T21:17:59.104Z,96209.63
2022-08-04T21:20:28.390Z,96205.16
2022-08-04T21:23:01.533Z,96209.66
2022-08-04T21:25:29.332Z,96212.63
2022-08-04T21:27:58.783Z,96215.53
2022-08-04T21:30:27.073Z,96208.13
2022-08-04T21:32:55.208Z,96208.63
2022-08-04T21:35:36.914Z,96206.59
2022-08-04T21:38:17.157Z,96211.09
2022-08-04T21:41:01.937Z,96204.50
2022-08-04T21:43:42.782Z,96212.28
2022-08-04T21:46:11.495Z,96213.59
2022-08-04T21:48:39.168Z,96214.91
2022-08-04T21:54:08.475Z,96218.19
2022-08-04T21:56:36.493Z,96214.91
2022-08-04T21:59:11.111Z,96211.03
2022-08-04T22:01:51.801Z,96211.50
2022-08-04T22:04:19.471Z,96211.13
2022-08-04T22:06:47.628Z,96214.78
2022-08-04T22:09:18.926Z,96211.72
2022-08-04T22:11:51.157Z,96214.78
2022-08-04T22:14:29.263Z,96212.25
2022-08-04T22:17:04.162Z,96210.03
2022-08-04T22:19:54.983Z,96215.91
2022-08-04T22:22:26.286Z,96213.44
2022-08-04T22:25:00.293Z,96212.28
2022-08-04T22:27:47.397Z,96211.91
2022-08-04T22:30:17.756Z,96206.72
2022-08-04T22:32:48.492Z,96209.06
2022-08-04T22:35:43.374Z,96202.00
2022-08-04T22:38:06.603Z,96204.38
2022-08-04T22:40:50.087Z,96199.41
2022-08-04T22:43:32.602Z,96211.97
2022-08-04T22:46:06.483Z,96209.75
2022-08-04T22:48:38.465Z,96207.84
2022-08-04T22:51:07.389Z,96209.38
2022-08-04T22:53:35.458Z,96209.25
2022-08-04T22:56:09.802Z,96207.00
2022-08-04T22:58:40.152Z,96203.59
2022-08-04T23:01:08.112Z,96201.13
2022-08-04T23:03:37.279Z,96200.16
2022-08-04T23:06:10.898Z,96206.00
2022-08-04T23:08:46.475Z,96201.44
2022-08-04T23:11:15.209Z,96195.66
2022-08-04T23:13:42.701Z,96197.56
2022-08-04T23:16:10.491Z,96193.44
2022-08-04T23:18:41.806Z,96192.25
2022-08-04T23:21:10.343Z,96184.13
2022-08-04T23:23:47.694Z,96186.22
2022-08-04T23:26:27.695Z,96187.50
2022-08-04T23:28:58.165Z,96188.22
2022-08-04T23:31:25.407Z,96189.50
2022-08-04T23:34:07.430Z,96189.91
2022-08-04T23:36:35.234Z,96189.31
2022-08-04T23:39:05.555Z,96182.00
2022-08-04T23:41:54.303Z,96179.78
2022-08-04T23:44:25.342Z,96178.72
2022-08-04T23:47:03.337Z,96173.31
2022-08-04T23:49:43.949Z,96173.31
2022-08-04T23:52:28.098Z,96175.41
2022-08-04T23:55:00.302Z,96170.72
2022-08-04T23:58:06.324Z,96169.28
